createdAt,value
2022-11-21T00:02:28.636Z,35.70
2022-11-21T00:05:38.483Z,36.23
2022-11-21T00:08:34.928Z,35.07
2022-11-21T00:11:47.848Z,34.30
2022-11-21T00:15:00.599Z,36.63
2022-11-21T00:18:08.700Z,37.40
2022-11-21T00:21:27.845Z,37.57
2022-11-21T00:28:05.297Z,31.50
2022-11-21T00:34:33.153Z,33.90
2022-11-21T00:38:16.322Z,36.13
2022-11-21T00:41:44.155Z,31.20
2022-11-21T00:45:19.701Z,36.00
2022-11-21T00:48:17.441Z,32.97
2022-11-21T00:55:49.347Z,33.67
2022-11-21T00:59:19.323Z,31.70
2022-11-21T01:02:34.696Z,30.17
2022-11-21T01:06:05.954Z,34.33
2022-11-21T01:08:59.534Z,31.90
2022-11-21T01:12:51.071Z,34.27
2022-11-21T01:19:48.059Z,31.63
2022-11-21T01:26:22.545Z,35.33
2022-11-21T01:29:39.214Z,34.63
2022-11-21T01:33:10.689Z,29.33
2022-11-21T01:36:00.378Z,34.10
2022-11-21T01:39:09.810Z,52.57
2022-11-21T01:42:00.365Z,36.50
2022-11-21T01:44:51.835Z,33.33
2022-11-21T01:47:42.650Z,31.80
2022-11-21T01:50:33.306Z,32.53
2022-11-21T01:53:40.209Z,36.10
2022-11-21T01:57:16.725Z,35.73
2022-11-21T02:00:38.302Z,41.07
2022-11-21T02:03:58.936Z,35.93
2022-11-21T02:06:52.895Z,39.77
2022-11-21T02:09:45.628Z,38.20
2022-11-21T02:12:55.318Z,33.53
2022-11-21T02:15:52.722Z,41.13
2022-11-21T02:19:09.873Z,36.97
2022-11-21T02:25:44.663Z,35.50
2022-11-21T02:28:34.668Z,37.57
2022-11-21T02:31:45.234Z,41.10
2022-11-21T02:34:43.192Z,36.63
2022-11-21T02:37:40.681Z,36.43
2022-11-21T02:40:34.614Z,38.90
2022-11-21T02:43:30.614Z,33.50
2022-11-21T02:46:18.957Z,36.87
2022-11-21T02:49:11.027Z,38.63
2022-11-21T02:52:00.125Z,36.67
2022-11-21T02:55:01.457Z,40.20
2022-11-21T02:57:50.090Z,37.97
2022-11-21T03:00:44.127Z,36.77
2022-11-21T03:03:46.115Z,36.57
2022-11-21T03:06:38.659Z,35.57
2022-11-21T03:09:29.066Z,39.53
2022-11-21T03:12:17.543Z,47.50
2022-11-21T03:15:07.813Z,47.43
2022-11-21T03:17:58.157Z,40.87
2022-11-21T03:21:11.564Z,44.80
2022-11-21T03:33:33.144Z,42.93
2022-11-21T03:36:21.723Z,43.10
2022-11-21T03:39:11.550Z,34.47
2022-11-21T03:42:07.386Z,37.00
2022-11-21T03:48:25.615Z,38.17
2022-11-21T03:51:15.504Z,38.90
2022-11-21T04:09:38.109Z,35.50
2022-11-21T04:15:32.015Z,39.33
2022-11-21T04:28:25.925Z,37.93
2022-11-21T04:31:15.005Z,36.77
2022-11-21T04:34:04.763Z,40.57
2022-11-21T04:36:53.515Z,38.60
2022-11-21T04:39:42.039Z,41.57
2022-11-21T04:42:31.643Z,41.30
2022-11-21T04:54:28.286Z,41.03
2022-11-21T04:57:17.118Z,43.73
2022-11-21T08:58:42.330Z,41.03
2022-11-21T09:01:32.065Z,38.93
2022-11-21T09:04:24.301Z,41.80
2022-11-21T09:07:14.304Z,41.67
2022-11-21T09:10:03.240Z,47.73
2022-11-21T09:12:54.739Z,48.93
2022-11-21T09:16:06.114Z,44.43
2022-11-21T09:18:56.312Z,52.53
2022-11-21T09:21:53.717Z,59.43
2022-11-21T09:24:44.411Z,52.57
2022-11-21T09:27:35.280Z,60.27
2022-11-21T09:30:31.740Z,59.30
2022-11-21T09:33:22.834Z,56.63
2022-11-21T09:36:13.413Z,59.20
2022-11-21T09:39:08.193Z,55.37
2022-11-21T09:42:10.476Z,56.07
2022-11-21T09:45:07.375Z,59.20
2022-11-21T09:47:58.642Z,51.47
2022-11-21T09:50:57.447Z,38.63
2022-11-21T09:53:54.941Z,44.50
2022-11-21T09:56:46.961Z,37.77
2022-11-21T09:59:39.419Z,48.73
2022-11-21T10:02:30.976Z,47.43
2022-11-21T10:05:33.398Z,41.70
2022-11-21T10:08:36.034Z,55.33
2022-11-21T10:11:36.911Z,51.20
2022-11-21T10:14:41.300Z,53.47
2022-11-21T10:17:45.628Z,45.10
2022-11-21T10:20:52.813Z,48.07
2022-11-21T10:24:08.807Z,44.50
2022-11-21T10:27:01.950Z,51.77
2022-11-21T10:29:57.032Z,51.63
2022-11-21T10:32:49.142Z,55.30
2022-11-21T10:35:42.965Z,53.37
2022-11-21T17:25:29.166Z,45.93
2022-11-21T17:28:17.813Z,59.03
2022-11-21T17:31:10.969Z,49.43
2022-11-21T18:08:11.355Z,53.50
2022-11-21T18:11:02.850Z,55.50
2022-11-21T18:13:57.838Z,53.23
2022-11-21T18:16:52.810Z,50.70
2022-11-21T18:19:58.304Z,60.03
2022-11-21T18:22:53.464Z,52.23
2022-11-21T18:25:48.253Z,53.60
2022-11-21T18:28:40.689Z,53.87
2022-11-21T18:31:33.452Z,51.53
2022-11-21T18:34:25.159Z,52.57
2022-11-21T18:37:20.345Z,59.23
2022-11-21T18:40:11.130Z,52.30
2022-11-21T18:43:03.541Z,53.93
2022-11-21T18:46:08.500Z,57.67
2022-11-21T18:49:05.245Z,54.40
2022-11-21T18:51:56.254Z,56.30
2022-11-21T18:54:46.991Z,54.00
2022-11-21T18:57:35.906Z,49.90
2022-11-21T19:00:26.245Z,58.83
2022-11-21T19:03:19.888Z,57.83
2022-11-21T19:06:08.971Z,57.33
2022-11-21T19:08:59.788Z,50.47
2022-11-21T19:11:51.189Z,50.63
2022-11-21T19:14:40.058Z,53.83
2022-11-21T19:17:33.067Z,48.57
2022-11-21T19:20:21.750Z,49.17
2022-11-21T19:23:40.664Z,57.27
2022-11-21T19:26:31.723Z,55.80
2022-11-21T19:29:20.498Z,54.03
2022-11-21T19:32:09.443Z,49.90
2022-11-21T19:35:02.576Z,50.43
2022-11-21T19:37:55.928Z,48.30
2022-11-21T19:41:01.932Z,51.63
2022-11-21T19:43:53.570Z,52.23
2022-11-21T19:46:42.327Z,53.70
2022-11-21T19:49:31.181Z,46.97
2022-11-21T19:52:28.117Z,41.57
2022-11-21T19:55:28.402Z,43.53
2022-11-21T19:58:25.671Z,44.83
2022-11-21T20:01:35.449Z,39.37
2022-11-21T20:04:45.861Z,40.90
2022-11-21T20:07:40.986Z,44.13
2022-11-21T20:10:33.110Z,45.73
2022-11-21T20:13:21.817Z,45.07
2022-11-21T20:16:24.344Z,32.90
2022-11-21T20:19:22.020Z,40.70
2022-11-21T20:25:18.259Z,39.23
2022-11-21T20:28:11.479Z,35.40
2022-11-21T20:31:06.546Z,39.33
2022-11-21T20:33:57.811Z,37.23
2022-11-21T20:36:48.399Z,33.70
2022-11-21T20:39:38.608Z,38.97
2022-11-21T20:42:32.667Z,33.30
2022-11-21T20:46:07.284Z,44.13
2022-11-21T20:48:36.823Z,34.57
2022-11-21T20:54:35.846Z,34.90
2022-11-21T20:57:27.587Z,33.83
2022-11-21T21:00:19.068Z,33.30
2022-11-21T21:03:08.458Z,30.90
2022-11-21T21:06:02.717Z,35.37
2022-11-21T21:08:55.388Z,36.00
2022-11-21T21:11:53.424Z,37.80
2022-11-21T21:14:57.391Z,40.80
2022-11-21T21:17:47.784Z,35.20
2022-11-21T21:21:01.687Z,34.73
2022-11-21T21:23:53.950Z,36.80
2022-11-21T21:26:44.744Z,30.67
2022-11-21T21:29:33.342Z,38.47
2022-11-21T21:32:26.948Z,34.00
2022-11-21T21:35:19.075Z,26.03
2022-11-21T21:38:18.669Z,34.07
2022-11-21T21:41:10.171Z,27.33
2022-11-21T21:44:00.540Z,35.20
2022-11-21T21:46:49.445Z,34.40
2022-11-21T21:49:45.536Z,30.40
2022-11-21T21:52:40.183Z,27.20
2022-11-21T21:55:32.249Z,37.10
2022-11-21T21:58:24.443Z,34.57
2022-11-21T22:01:16.300Z,30.70
2022-11-21T22:04:08.395Z,34.50
2022-11-21T22:07:01.899Z,34.40
2022-11-21T22:09:54.186Z,34.67
2022-11-21T22:12:53.787Z,32.70
2022-11-21T22:15:46.629Z,36.47
2022-11-21T22:18:37.727Z,31.50
2022-11-21T22:21:32.925Z,32.80
2022-11-21T22:24:28.569Z,35.20
2022-11-21T22:27:19.830Z,36.10
2022-11-21T22:30:15.631Z,33.07
2022-11-21T22:33:07.868Z,34.60
2022-11-21T22:36:04.217Z,33.70
